sensor_id;sensor_type;location;lat;lon;timestamp;pressure;altitude;pressure_sealevel;temperature;humidity
41703;BME280;861;48.808;9.006;2023-04-06T00:00:27;97320.81;;;4.87;55.05
41703;BME280;861;48.808;9.006;2023-04-06T00:02:53;97309.78;;;4.92;54.99
41703;BME280;861;48.808;9.006;2023-04-06T00:05:20;97311.91;;;4.86;54.82
41703;BME280;861;48.808;9.006;2023-04-06T00:07:48;97310.06;;;5.02;54.84
41703;BME280;861;48.808;9.006;2023-04-06T00:10:17;97305.19;;;5.20;54.43
41703;BME280;861;48.808;9.006;2023-04-06T00:12:44;97311.28;;;4.77;55.25
41703;BME280;861;48.808;9.006;2023-04-06T00:15:11;97302.91;;;4.94;54.96
41703;BME280;861;48.808;9.006;2023-04-06T00:17:38;97304.13;;;4.45;56.35
41703;BME280;861;48.808;9.006;2023-04-06T00:20:05;97303.13;;;4.13;56.67
41703;BME280;861;48.808;9.006;2023-04-06T00:22:33;97295.06;;;4.25;56.41
41703;BME280;861;48.808;9.006;2023-04-06T00:25:00;97296.94;;;4.37;55.69
41703;BME280;861;48.808;9.006;2023-04-06T00:27:27;97300.66;;;4.32;56.20
41703;BME280;861;48.808;9.006;2023-04-06T00:29:54;97296.81;;;4.33;56.95
41703;BME280;861;48.808;9.006;2023-04-06T00:32:20;97290.19;;;4.43;56.29
41703;BME280;861;48.808;9.006;2023-04-06T00:34:47;97291.41;;;4.57;55.61
41703;BME280;861;48.808;9.006;2023-04-06T00:37:14;97294.13;;;4.45;55.94
41703;BME280;861;48.808;9.006;2023-04-06T00:39:40;97289.00;;;4.28;56.07
41703;BME280;861;48.808;9.006;2023-04-06T00:42:14;97285.84;;;4.26;56.56
41703;BME280;861;48.808;9.006;2023-04-06T00:44:42;97294.56;;;3.75;58.11
41703;BME280;861;48.808;9.006;2023-04-06T00:47:09;97296.13;;;3.64;58.09
41703;BME280;861;48.808;9.006;2023-04-06T00:49:36;97283.91;;;3.22;59.54
41703;BME280;861;48.808;9.006;2023-04-06T00:52:02;97293.50;;;2.78;61.08
41703;BME280;861;48.808;9.006;2023-04-06T00:54:30;97285.25;;;3.16;60.17
41703;BME280;861;48.808;9.006;2023-04-06T00:56:57;97291.78;;;3.27;60.37
41703;BME280;861;48.808;9.006;2023-04-06T00:59:24;97279.28;;;3.43;59.55
41703;BME280;861;48.808;9.006;2023-04-06T01:01:51;97284.00;;;3.58;58.48
41703;BME280;861;48.808;9.006;2023-04-06T01:04:17;97282.81;;;3.80;58.59
41703;BME280;861;48.808;9.006;2023-04-06T01:06:44;97280.88;;;3.80;58.23
41703;BME280;861;48.808;9.006;2023-04-06T01:09:11;97282.91;;;3.83;58.54
41703;BME280;861;48.808;9.006;2023-04-06T01:11:38;97275.16;;;3.82;57.78
41703;BME280;861;48.808;9.006;2023-04-06T01:14:05;97282.91;;;3.59;58.45
41703;BME280;861;48.808;9.006;2023-04-06T01:16:33;97273.91;;;3.67;58.59
41703;BME280;861;48.808;9.006;2023-04-06T01:19:00;97273.28;;;3.82;58.01
41703;BME280;861;48.808;9.006;2023-04-06T01:21:27;97276.50;;;3.76;57.73
41703;BME280;861;48.808;9.006;2023-04-06T01:23:53;97279.19;;;3.64;58.62
41703;BME280;861;48.808;9.006;2023-04-06T01:26:19;97269.44;;;3.71;59.01
41703;BME280;861;48.808;9.006;2023-04-06T01:28:46;97270.66;;;3.62;57.99
41703;BME280;861;48.808;9.006;2023-04-06T01:31:12;97263.81;;;3.64;58.51
41703;BME280;861;48.808;9.006;2023-04-06T01:33:40;97266.50;;;3.64;59.19
41703;BME280;861;48.808;9.006;2023-04-06T01:36:13;97265.75;;;3.64;58.25
41703;BME280;861;48.808;9.006;2023-04-06T01:38:41;97265.16;;;3.58;58.54
41703;BME280;861;48.808;9.006;2023-04-06T01:41:08;97255.97;;;3.59;59.13
41703;BME280;861;48.808;9.006;2023-04-06T01:43:35;97256.94;;;3.31;59.70
41703;BME280;861;48.808;9.006;2023-04-06T01:46:03;97258.16;;;3.33;59.89
41703;BME280;861;48.808;9.006;2023-04-06T01:48:30;97253.53;;;3.22;60.24
41703;BME280;861;48.808;9.006;2023-04-06T01:50:56;97255.63;;;3.04;60.91
41703;BME280;861;48.808;9.006;2023-04-06T01:53:22;97256.72;;;3.03;60.70
41703;BME280;861;48.808;9.006;2023-04-06T01:55:49;97251.25;;;2.79;61.05
41703;BME280;861;48.808;9.006;2023-04-06T01:58:15;97255.53;;;2.59;62.04
41703;BME280;861;48.808;9.006;2023-04-06T02:00:42;97251.53;;;2.65;62.61
41703;BME280;861;48.808;9.006;2023-04-06T02:03:08;97248.59;;;2.38;62.76
41703;BME280;861;48.808;9.006;2023-04-06T02:05:34;97251.84;;;2.23;63.25
41703;BME280;861;48.808;9.006;2023-04-06T02:08:07;97248.75;;;1.54;65.18
41703;BME280;861;48.808;9.006;2023-04-06T02:10:35;97251.47;;;2.33;63.60
41703;BME280;861;48.808;9.006;2023-04-06T02:13:01;97243.72;;;2.31;63.67
41703;BME280;861;48.808;9.006;2023-04-06T02:15:27;97242.28;;;2.54;62.87
41703;BME280;861;48.808;9.006;2023-04-06T02:17:54;97243.94;;;2.47;62.67
41703;BME280;861;48.808;9.006;2023-04-06T02:20:20;97238.53;;;2.88;61.54
41703;BME280;861;48.808;9.006;2023-04-06T02:22:46;97243.53;;;3.10;60.91
41703;BME280;861;48.808;9.006;2023-04-06T02:25:13;97237.44;;;3.01;61.30
41703;BME280;861;48.808;9.006;2023-04-06T02:27:39;97242.44;;;2.90;61.53
41703;BME280;861;48.808;9.006;2023-04-06T02:30:06;97246.13;;;3.18;60.62
41703;BME280;861;48.808;9.006;2023-04-06T02:32:33;97248.19;;;3.01;61.16
41703;BME280;861;48.808;9.006;2023-04-06T02:35:00;97244.97;;;2.75;61.58
41703;BME280;861;48.808;9.006;2023-04-06T02:37:26;97240.38;;;3.08;61.02
41703;BME280;861;48.808;9.006;2023-04-06T02:39:53;97239.38;;;2.80;62.04
41703;BME280;861;48.808;9.006;2023-04-06T02:42:19;97237.50;;;2.19;63.29
41703;BME280;861;48.808;9.006;2023-04-06T02:44:45;97239.09;;;1.91;64.53
41703;BME280;861;48.808;9.006;2023-04-06T02:47:12;97242.72;;;1.86;64.88
41703;BME280;861;48.808;9.006;2023-04-06T02:49:38;97242.00;;;2.06;63.72
41703;BME280;861;48.808;9.006;2023-04-06T02:52:04;97233.34;;;2.01;64.15
41703;BME280;861;48.808;9.006;2023-04-06T02:54:30;97227.84;;;2.18;64.09
41703;BME280;861;48.808;9.006;2023-04-06T02:56:57;97236.22;;;2.16;63.40
41703;BME280;861;48.808;9.006;2023-04-06T02:59:23;97233.25;;;2.38;63.34
41703;BME280;861;48.808;9.006;2023-04-06T03:01:49;97226.97;;;2.55;62.08
41703;BME280;861;48.808;9.006;2023-04-06T03:04:15;97234.41;;;2.49;62.58
41703;BME280;861;48.808;9.006;2023-04-06T03:06:42;97236.00;;;2.30;62.81
41703;BME280;861;48.808;9.006;2023-04-06T03:09:08;97231.66;;;2.17;63.31
41703;BME280;861;48.808;9.006;2023-04-06T03:11:34;97240.28;;;2.22;63.36
41703;BME280;861;48.808;9.006;2023-04-06T03:14:00;97236.41;;;1.91;64.32
41703;BME280;861;48.808;9.006;2023-04-06T03:16:27;97241.13;;;1.94;64.37
41703;BME280;861;48.808;9.006;2023-04-06T03:18:53;97232.53;;;2.00;64.26
41703;BME280;861;48.808;9.006;2023-04-06T03:21:19;97233.44;;;2.33;63.17
41703;BME280;861;48.808;9.006;2023-04-06T03:23:45;97240.31;;;2.43;62.98
41703;BME280;861;48.808;9.006;2023-04-06T03:26:11;97228.38;;;2.32;63.08
41703;BME280;861;48.808;9.006;2023-04-06T03:28:38;97239.66;;;2.25;63.33
41703;BME280;861;48.808;9.006;2023-04-06T03:31:04;97230.69;;;2.42;63.16
41703;BME280;861;48.808;9.006;2023-04-06T03:33:30;97236.06;;;2.42;62.88
41703;BME280;861;48.808;9.006;2023-04-06T03:35:56;97232.47;;;2.58;62.49
41703;BME280;861;48.808;9.006;2023-04-06T03:38:23;97229.13;;;2.61;62.48
41703;BME280;861;48.808;9.006;2023-04-06T03:40:49;97239.59;;;2.54;62.80
41703;BME280;861;48.808;9.006;2023-04-06T03:43:15;97242.72;;;2.15;63.99
41703;BME280;861;48.808;9.006;2023-04-06T03:45:42;97244.81;;;2.30;63.60
41703;BME280;861;48.808;9.006;2023-04-06T03:48:08;97242.88;;;2.39;62.84
41703;BME280;861;48.808;9.006;2023-04-06T03:50:34;97238.56;;;2.47;62.30
41703;BME280;861;48.808;9.006;2023-04-06T03:53:01;97244.41;;;2.49;62.83
41703;BME280;861;48.808;9.006;2023-04-06T03:55:30;97249.50;;;2.42;62.67
41703;BME280;861;48.808;9.006;2023-04-06T03:57:56;97249.09;;;2.31;63.38
41703;BME280;861;48.808;9.006;2023-04-06T04:00:24;97249.81;;;2.20;63.51
41703;BME280;861;48.808;9.006;2023-04-06T04:02:51;97247.88;;;2.00;64.58
41703;BME280;861;48.808;9.006;2023-04-06T04:05:17;97257.88;;;2.20;63.76
41703;BME280;861;48.808;9.006;2023-04-06T04:07:43;97251.66;;;1.99;64.00
41703;BME280;861;48.808;9.006;2023-04-06T04:10:09;97258.47;;;1.96;64.27
41703;BME280;861;48.808;9.006;2023-04-06T04:12:36;97259.72;;;1.99;64.21
41703;BME280;861;48.808;9.006;2023-04-06T04:15:03;97257.84;;;1.62;65.27
41703;BME280;861;48.808;9.006;2023-04-06T04:17:30;97261.00;;;1.64;65.41
41703;BME280;861;48.808;9.006;2023-04-06T04:19:56;97263.75;;;1.46;65.89
41703;BME280;861;48.808;9.006;2023-04-06T04:22:22;97258.25;;;1.43;66.00
41703;BME280;861;48.808;9.006;2023-04-06T04:24:48;97253.41;;;1.66;65.63
41703;BME280;861;48.808;9.006;2023-04-06T04:27:14;97252.81;;;1.89;64.73
41703;BME280;861;48.808;9.006;2023-04-06T04:29:41;97258.56;;;1.79;64.74
41703;BME280;861;48.808;9.006;2023-04-06T04:32:09;97255.38;;;1.86;64.66
41703;BME280;861;48.808;9.006;2023-04-06T04:34:35;97261.06;;;2.13;64.21
41703;BME280;861;48.808;9.006;2023-04-06T04:37:01;97257.59;;;2.13;63.97
41703;BME280;861;48.808;9.006;2023-04-06T04:39:28;97256.91;;;1.95;64.37
41703;BME280;861;48.808;9.006;2023-04-06T04:41:54;97259.34;;;1.42;65.22
41703;BME280;861;48.808;9.006;2023-04-06T04:44:20;97263.44;;;1.86;64.75
41703;BME280;861;48.808;9.006;2023-04-06T04:46:46;97259.16;;;1.85;64.72
41703;BME280;861;48.808;9.006;2023-04-06T04:49:13;97255.00;;;1.96;64.72
41703;BME280;861;48.808;9.006;2023-04-06T04:51:39;97265.88;;;1.70;65.04
41703;BME280;861;48.808;9.006;2023-04-06T04:54:05;97265.47;;;1.51;65.70
41703;BME280;861;48.808;9.006;2023-04-06T04:56:32;97260.63;;;1.36;66.25
41703;BME280;861;48.808;9.006;2023-04-06T04:58:58;97271.31;;;0.81;68.01
41703;BME280;861;48.808;9.006;2023-04-06T05:01:25;97272.63;;;1.38;66.69
41703;BME280;861;48.808;9.006;2023-04-06T05:03:52;97271.56;;;1.69;65.52
41703;BME280;861;48.808;9.006;2023-04-06T05:06:18;97269.63;;;1.78;65.39
41703;BME280;861;48.808;9.006;2023-04-06T05:08:45;97269.91;;;1.47;65.40
41703;BME280;861;48.808;9.006;2023-04-06T05:11:11;97261.66;;;1.61;65.46
41703;BME280;861;48.808;9.006;2023-04-06T05:13:38;97276.06;;;1.39;66.10
41703;BME280;861;48.808;9.006;2023-04-06T05:16:04;97271.72;;;1.09;67.20
41703;BME280;861;48.808;9.006;2023-04-06T05:18:31;97268.19;;;1.42;66.53
41703;BME280;861;48.808;9.006;2023-04-06T05:20:58;97279.25;;;1.79;65.15
41703;BME280;861;48.808;9.006;2023-04-06T05:23:24;97271.84;;;1.76;64.97
41703;BME280;861;48.808;9.006;2023-04-06T05:25:51;97282.22;;;1.86;64.99
41703;BME280;861;48.808;9.006;2023-04-06T05:28:18;97283.28;;;1.55;65.57
41703;BME280;861;48.808;9.006;2023-04-06T05:30:45;97282.88;;;1.28;66.66
41703;BME280;861;48.808;9.006;2023-04-06T05:33:14;97286.50;;;1.78;65.50
41703;BME280;861;48.808;9.006;2023-04-06T05:35:41;97274.91;;;1.95;64.95
41703;BME280;861;48.808;9.006;2023-04-06T05:38:09;97284.34;;;1.72;65.41
41703;BME280;861;48.808;9.006;2023-04-06T05:40:38;97284.69;;;1.62;66.23
41703;BME280;861;48.808;9.006;2023-04-06T05:43:07;97282.50;;;1.55;66.54
41703;BME280;861;48.808;9.006;2023-04-06T05:45:34;97289.56;;;1.59;66.39
41703;BME280;861;48.808;9.006;2023-04-06T05:48:03;97283.47;;;1.50;66.97
41703;BME280;861;48.808;9.006;2023-04-06T05:50:29;97280.72;;;1.68;66.73
41703;BME280;861;48.808;9.006;2023-04-06T05:52:56;97290.88;;;1.45;67.27
41703;BME280;861;48.808;9.006;2023-04-06T05:55:22;97291.81;;;1.58;67.27
41703;BME280;861;48.808;9.006;2023-04-06T05:57:48;97284.38;;;1.54;67.86
41703;BME280;861;48.808;9.006;2023-04-06T06:00:15;97295.75;;;1.51;67.86
41703;BME280;861;48.808;9.006;2023-04-06T06:02:41;97295.91;;;1.64;67.94
41703;BME280;861;48.808;9.006;2023-04-06T06:05:09;97297.94;;;1.67;68.66
41703;BME280;861;48.808;9.006;2023-04-06T06:07:36;97299.81;;;1.75;68.50
41703;BME280;861;48.808;9.006;2023-04-06T06:10:19;97295.91;;;1.93;68.36
41703;BME280;861;48.808;9.006;2023-04-06T06:12:45;97295.84;;;1.72;69.29
41703;BME280;861;48.808;9.006;2023-04-06T06:15:11;97298.69;;;1.76;69.05
41703;BME280;861;48.808;9.006;2023-04-06T06:17:38;97297.94;;;1.96;69.01
41703;BME280;861;48.808;9.006;2023-04-06T06:20:07;97301.28;;;1.93;69.26
41703;BME280;861;48.808;9.006;2023-04-06T06:22:35;97297.69;;;2.18;68.16
41703;BME280;861;48.808;9.006;2023-04-06T06:25:02;97304.44;;;1.95;68.69
41703;BME280;861;48.808;9.006;2023-04-06T06:27:29;97302.06;;;2.02;69.25
41703;BME280;861;48.808;9.006;2023-04-06T06:29:55;97298.75;;;2.25;68.26
41703;BME280;861;48.808;9.006;2023-04-06T06:32:22;97301.53;;;2.37;68.31
41703;BME280;861;48.808;9.006;2023-04-06T06:34:49;97306.72;;;2.63;67.02
41703;BME280;861;48.808;9.006;2023-04-06T06:37:15;97298.59;;;2.71;66.96
41703;BME280;861;48.808;9.006;2023-04-06T06:39:42;97299.00;;;3.02;66.68
41703;BME280;861;48.808;9.006;2023-04-06T06:42:09;97303.97;;;2.92;67.16
41703;BME280;861;48.808;9.006;2023-04-06T06:44:36;97308.81;;;2.98;66.91
41703;BME280;861;48.808;9.006;2023-04-06T06:47:02;97303.69;;;3.05;67.16
41703;BME280;861;48.808;9.006;2023-04-06T06:49:29;97304.28;;;3.11;67.04
41703;BME280;861;48.808;9.006;2023-04-06T06:51:56;97309.63;;;3.32;66.97
41703;BME280;861;48.808;9.006;2023-04-06T06:54:22;97298.03;;;3.19;67.25
41703;BME280;861;48.808;9.006;2023-04-06T06:56:49;97310.53;;;3.36;67.66
41703;BME280;861;48.808;9.006;2023-04-06T06:59:15;97309.91;;;3.51;66.92
41703;BME280;861;48.808;9.006;2023-04-06T07:01:43;97308.50;;;3.77;66.36
41703;BME280;861;48.808;9.006;2023-04-06T07:04:09;97311.78;;;3.83;66.15
41703;BME280;861;48.808;9.006;2023-04-06T07:06:36;97309.06;;;3.95;65.88
41703;BME280;861;48.808;9.006;2023-04-06T07:09:03;97295.63;;;4.19;65.51
41703;BME280;861;48.808;9.006;2023-04-06T07:11:30;97307.38;;;4.38;66.42
41703;BME280;861;48.808;9.006;2023-04-06T07:13:57;97304.69;;;4.50;64.53
41703;BME280;861;48.808;9.006;2023-04-06T07:16:23;97310.19;;;4.94;63.64
41703;BME280;861;48.808;9.006;2023-04-06T07:18:51;97307.50;;;4.94;62.98
41703;BME280;861;48.808;9.006;2023-04-06T07:21:17;97304.16;;;5.12;63.10
41703;BME280;861;48.808;9.006;2023-04-06T07:23:44;97305.25;;;5.23;63.17
41703;BME280;861;48.808;9.006;2023-04-06T07:26:11;97302.72;;;5.58;61.85
41703;BME280;861;48.808;9.006;2023-04-06T07:28:37;97306.69;;;5.76;60.68
41703;BME280;861;48.808;9.006;2023-04-06T07:31:04;97299.66;;;6.02;60.46
41703;BME280;861;48.808;9.006;2023-04-06T07:33:31;97307.31;;;6.32;59.56
41703;BME280;861;48.808;9.006;2023-04-06T07:35:57;97301.97;;;6.51;57.97
41703;BME280;861;48.808;9.006;2023-04-06T07:38:25;97304.06;;;6.76;57.25
41703;BME280;861;48.808;9.006;2023-04-06T07:40:51;97305.75;;;7.00;57.03
41703;BME280;861;48.808;9.006;2023-04-06T07:43:18;97301.91;;;7.20;56.46
41703;BME280;861;48.808;9.006;2023-04-06T07:45:45;97308.09;;;7.39;55.32
41703;BME280;861;48.808;9.006;2023-04-06T07:48:11;97308.06;;;7.58;55.23
41703;BME280;861;48.808;9.006;2023-04-06T07:50:50;97308.59;;;7.87;54.20
41703;BME280;861;48.808;9.006;2023-04-06T07:53:17;97309.72;;;7.86;54.04
41703;BME280;861;48.808;9.006;2023-04-06T07:55:44;97311.38;;;8.13;52.94
41703;BME280;861;48.808;9.006;2023-04-06T07:58:10;97310.72;;;8.19;52.58
41703;BME280;861;48.808;9.006;2023-04-06T08:00:37;97306.59;;;8.06;53.23
41703;BME280;861;48.808;9.006;2023-04-06T08:03:04;97302.22;;;8.21;52.07
41703;BME280;861;48.808;9.006;2023-04-06T08:05:31;97303.28;;;8.39;52.36
41703;BME280;861;48.808;9.006;2023-04-06T08:07:57;97299.13;;;8.71;50.92
41703;BME280;861;48.808;9.006;2023-04-06T08:10:24;97292.41;;;8.91;51.11
41703;BME280;861;48.808;9.006;2023-04-06T08:12:53;97307.53;;;8.92;50.74
41703;BME280;861;48.808;9.006;2023-04-06T08:15:19;97297.34;;;9.45;48.83
41703;BME280;861;48.808;9.006;2023-04-06T08:17:46;97300.69;;;9.31;48.99
41703;BME280;861;48.808;9.006;2023-04-06T08:20:13;97301.78;;;9.60;49.56
41703;BME280;861;48.808;9.006;2023-04-06T08:22:40;97302.38;;;9.79;47.95
41703;BME280;861;48.808;9.006;2023-04-06T08:25:07;97295.75;;;10.17;45.73
41703;BME280;861;48.808;9.006;2023-04-06T08:27:33;97293.69;;;10.47;45.01
41703;BME280;861;48.808;9.006;2023-04-06T08:30:00;97295.69;;;10.57;45.32
41703;BME280;861;48.808;9.006;2023-04-06T08:32:27;97296.91;;;10.63;44.26
41703;BME280;861;48.808;9.006;2023-04-06T08:42:02;97282.19;;;10.71;40.58
41703;BME280;861;48.808;9.006;2023-04-06T08:44:31;97294.31;;;10.88;41.26
41703;BME280;861;48.808;9.006;2023-04-06T08:46:59;97293.34;;;11.27;39.88
41703;BME280;861;48.808;9.006;2023-04-06T08:49:28;97291.47;;;11.49;41.07
41703;BME280;861;48.808;9.006;2023-04-06T08:51:56;97286.91;;;11.70;41.77
41703;BME280;861;48.808;9.006;2023-04-06T08:54:23;97283.66;;;11.33;39.37
41703;BME280;861;48.808;9.006;2023-04-06T08:56:53;97292.31;;;11.60;38.64
41703;BME280;861;48.808;9.006;2023-04-06T08:59:20;97287.13;;;11.27;39.97
41703;BME280;861;48.808;9.006;2023-04-06T09:01:48;97286.13;;;11.63;38.31
41703;BME280;861;48.808;9.006;2023-04-06T09:04:15;97287.25;;;11.62;40.79
41703;BME280;861;48.808;9.006;2023-04-06T09:06:42;97274.88;;;12.03;38.39
41703;BME280;861;48.808;9.006;2023-04-06T09:09:09;97278.03;;;12.19;39.25
41703;BME280;861;48.808;9.006;2023-04-06T09:11:51;97274.88;;;12.63;38.16
41703;BME280;861;48.808;9.006;2023-04-06T09:14:36;97276.03;;;12.79;38.31
41703;BME280;861;48.808;9.006;2023-04-06T09:17:05;97289.69;;;12.09;39.85
41703;BME280;861;48.808;9.006;2023-04-06T09:19:32;97276.47;;;12.18;39.84
41703;BME280;861;48.808;9.006;2023-04-06T09:22:06;97280.75;;;12.47;39.46
41703;BME280;861;48.808;9.006;2023-04-06T09:24:49;97283.41;;;12.89;37.76
41703;BME280;861;48.808;9.006;2023-04-06T09:27:17;97282.13;;;13.29;36.99
41703;BME280;861;48.808;9.006;2023-04-06T09:29:45;97278.06;;;13.68;36.13
41703;BME280;861;48.808;9.006;2023-04-06T09:32:12;97278.94;;;13.44;37.92
41703;BME280;861;48.808;9.006;2023-04-06T09:34:42;97274.28;;;13.41;39.85
41703;BME280;861;48.808;9.006;2023-04-06T09:37:17;97269.00;;;13.78;39.10
41703;BME280;861;48.808;9.006;2023-04-06T09:39:46;97269.28;;;13.95;39.33
41703;BME280;861;48.808;9.006;2023-04-06T09:42:27;97275.34;;;14.27;37.11
41703;BME280;861;48.808;9.006;2023-04-06T09:44:54;97276.00;;;14.41;38.25
41703;BME280;861;48.808;9.006;2023-04-06T09:47:21;97268.19;;;14.40;37.91
41703;BME280;861;48.808;9.006;2023-04-06T09:49:59;97261.13;;;14.42;38.47
41703;BME280;861;48.808;9.006;2023-04-06T09:52:33;97263.00;;;14.52;38.84
41703;BME280;861;48.808;9.006;2023-04-06T09:55:05;97265.56;;;14.26;37.25
41703;BME280;861;48.808;9.006;2023-04-06T09:58:07;97262.63;;;13.96;37.64
41703;BME280;861;48.808;9.006;2023-04-06T10:01:12;97268.03;;;14.06;38.54
41703;BME280;861;48.808;9.006;2023-04-06T10:06:48;97265.59;;;14.66;36.54
41703;BME280;861;48.808;9.006;2023-04-06T10:09:24;97265.13;;;15.12;35.62
41703;BME280;861;48.808;9.006;2023-04-06T10:11:55;97254.66;;;15.33;34.13
41703;BME280;861;48.808;9.006;2023-04-06T10:14:24;97261.66;;;15.08;34.53
41703;BME280;861;48.808;9.006;2023-04-06T10:16:52;97253.41;;;14.71;34.76
41703;BME280;861;48.808;9.006;2023-04-06T10:19:28;97249.19;;;14.63;35.87
41703;BME280;861;48.808;9.006;2023-04-06T10:22:43;97255.22;;;14.84;38.20
41703;BME280;861;48.808;9.006;2023-04-06T10:25:28;97258.63;;;15.32;37.08
41703;BME280;861;48.808;9.006;2023-04-06T10:28:11;97250.72;;;15.38;36.67
41703;BME280;861;48.808;9.006;2023-04-06T10:30:43;97255.88;;;15.66;36.12
41703;BME280;861;48.808;9.006;2023-04-06T10:33:21;97250.03;;;14.97;35.93
41703;BME280;861;48.808;9.006;2023-04-06T10:35:47;97257.28;;;14.33;36.65
41703;BME280;861;48.808;9.006;2023-04-06T10:38:14;97254.00;;;15.26;37.67
41703;BME280;861;48.808;9.006;2023-04-06T10:40:43;97254.78;;;15.87;36.28
41703;BME280;861;48.808;9.006;2023-04-06T10:43:21;97261.28;;;15.96;36.61
41703;BME280;861;48.808;9.006;2023-04-06T10:46:01;97249.25;;;16.40;33.45
41703;BME280;861;48.808;9.006;2023-04-06T10:48:43;97246.97;;;16.35;34.52
41703;BME280;861;48.808;9.006;2023-04-06T10:51:18;97245.66;;;16.66;34.42
41703;BME280;861;48.808;9.006;2023-04-06T10:53:47;97253.22;;;16.62;34.11
41703;BME280;861;48.808;9.006;2023-04-06T10:56:21;97242.97;;;16.39;33.92
41703;BME280;861;48.808;9.006;2023-04-06T10:58:52;97240.16;;;16.20;33.31
41703;BME280;861;48.808;9.006;2023-04-06T11:01:24;97239.22;;;16.03;34.62
41703;BME280;861;48.808;9.006;2023-04-06T11:03:58;97238.28;;;16.13;36.90
41703;BME280;861;48.808;9.006;2023-04-06T11:06:28;97233.81;;;16.23;34.81
41703;BME280;861;48.808;9.006;2023-04-06T11:08:58;97235.56;;;16.59;34.03
41703;BME280;861;48.808;9.006;2023-04-06T11:11:26;97230.91;;;16.99;35.34
41703;BME280;861;48.808;9.006;2023-04-06T11:14:00;97230.06;;;17.22;34.45
41703;BME280;861;48.808;9.006;2023-04-06T11:16:31;97231.78;;;17.55;32.57
41703;BME280;861;48.808;9.006;2023-04-06T11:19:02;97234.25;;;16.67;35.04
41703;BME280;861;48.808;9.006;2023-04-06T11:21:48;97223.66;;;16.43;34.97
41703;BME280;861;48.808;9.006;2023-04-06T11:24:23;97224.41;;;17.29;33.08
41703;BME280;861;48.808;9.006;2023-04-06T11:26:55;97218.34;;;17.18;34.02
41703;BME280;861;48.808;9.006;2023-04-06T11:29:28;97217.81;;;17.62;33.05
41703;BME280;861;48.808;9.006;2023-04-06T11:32:01;97217.22;;;17.15;32.76
41703;BME280;861;48.808;9.006;2023-04-06T11:34:32;97209.22;;;16.81;32.98
41703;BME280;861;48.808;9.006;2023-04-06T11:37:08;97208.88;;;17.38;33.21
41703;BME280;861;48.808;9.006;2023-04-06T11:39:46;97212.50;;;17.55;34.24
41703;BME280;861;48.808;9.006;2023-04-06T11:42:24;97206.69;;;17.85;31.81
41703;BME280;861;48.808;9.006;2023-04-06T11:44:58;97206.72;;;16.91;32.14
41703;BME280;861;48.808;9.006;2023-04-06T11:47:35;97205.84;;;16.54;33.42
41703;BME280;861;48.808;9.006;2023-04-06T11:50:13;97202.44;;;16.20;32.96
41703;BME280;861;48.808;9.006;2023-04-06T11:52:43;97201.88;;;16.06;34.79
41703;BME280;861;48.808;9.006;2023-04-06T11:55:15;97195.16;;;16.33;34.49
41703;BME280;861;48.808;9.006;2023-04-06T11:57:45;97194.88;;;16.51;31.98
41703;BME280;861;48.808;9.006;2023-04-06T12:00:12;97193.63;;;16.75;31.42
41703;BME280;861;48.808;9.006;2023-04-06T12:02:44;97189.28;;;16.97;31.32
41703;BME280;861;48.808;9.006;2023-04-06T12:05:12;97188.97;;;16.72;32.11
41703;BME280;861;48.808;9.006;2023-04-06T12:07:38;97185.84;;;16.93;31.99
41703;BME280;861;48.808;9.006;2023-04-06T12:10:06;97184.19;;;17.35;32.10
41703;BME280;861;48.808;9.006;2023-04-06T12:12:33;97181.06;;;17.52;33.16
41703;BME280;861;48.808;9.006;2023-04-06T12:14:59;97183.78;;;17.72;30.54
41703;BME280;861;48.808;9.006;2023-04-06T12:17:26;97175.88;;;18.06;31.78
41703;BME280;861;48.808;9.006;2023-04-06T12:19:53;97177.44;;;18.39;30.56
41703;BME280;861;48.808;9.006;2023-04-06T12:22:19;97177.28;;;17.98;31.67
41703;BME280;861;48.808;9.006;2023-04-06T12:24:46;97173.38;;;18.11;30.37
41703;BME280;861;48.808;9.006;2023-04-06T12:27:12;97168.97;;;18.30;30.35
41703;BME280;861;48.808;9.006;2023-04-06T12:29:39;97174.56;;;18.26;29.16
41703;BME280;861;48.808;9.006;2023-04-06T12:32:06;97168.16;;;17.49;30.56
41703;BME280;861;48.808;9.006;2023-04-06T12:34:33;97172.97;;;17.26;34.15
41703;BME280;861;48.808;9.006;2023-04-06T12:37:00;97170.00;;;16.35;32.28
41703;BME280;861;48.808;9.006;2023-04-06T12:39:28;97166.38;;;16.84;32.08
41703;BME280;861;48.808;9.006;2023-04-06T12:41:54;97168.06;;;16.78;32.79
41703;BME280;861;48.808;9.006;2023-04-06T12:44:22;97158.75;;;16.92;32.94
41703;BME280;861;48.808;9.006;2023-04-06T12:46:49;97155.66;;;17.45;33.11
41703;BME280;861;48.808;9.006;2023-04-06T12:49:16;97151.75;;;17.94;32.56
41703;BME280;861;48.808;9.006;2023-04-06T12:51:45;97155.44;;;18.36;31.19
41703;BME280;861;48.808;9.006;2023-04-06T12:54:11;97147.75;;;18.59;31.13
41703;BME280;861;48.808;9.006;2023-04-06T12:56:38;97150.47;;;18.47;29.49
41703;BME280;861;48.808;9.006;2023-04-06T12:59:05;97151.22;;;18.31;32.12
41703;BME280;861;48.808;9.006;2023-04-06T13:01:32;97146.34;;;18.06;29.87
41703;BME280;861;48.808;9.006;2023-04-06T13:03:59;97148.88;;;18.62;30.72
41703;BME280;861;48.808;9.006;2023-04-06T13:06:25;97142.28;;;19.00;28.94
41703;BME280;861;48.808;9.006;2023-04-06T13:08:55;97132.88;;;18.98;30.04
41703;BME280;861;48.808;9.006;2023-04-06T13:11:22;97137.84;;;19.31;29.66
41703;BME280;861;48.808;9.006;2023-04-06T13:13:50;97140.94;;;19.71;28.08
41703;BME280;861;48.808;9.006;2023-04-06T13:16:17;97136.16;;;19.84;30.05
41703;BME280;861;48.808;9.006;2023-04-06T13:18:43;97130.44;;;19.78;30.63
41703;BME280;861;48.808;9.006;2023-04-06T13:21:15;97126.91;;;19.78;28.65
41703;BME280;861;48.808;9.006;2023-04-06T13:23:43;97119.91;;;19.99;28.90
41703;BME280;861;48.808;9.006;2023-04-06T13:26:10;97126.00;;;18.90;29.34
41703;BME280;861;48.808;9.006;2023-04-06T13:28:37;97125.53;;;18.79;30.34
41703;BME280;861;48.808;9.006;2023-04-06T13:31:05;97121.41;;;19.12;30.57
41703;BME280;861;48.808;9.006;2023-04-06T13:33:33;97119.53;;;18.68;30.33
41703;BME280;861;48.808;9.006;2023-04-06T13:36:01;97120.72;;;19.36;30.40
41703;BME280;861;48.808;9.006;2023-04-06T13:38:28;97122.16;;;19.53;31.10
41703;BME280;861;48.808;9.006;2023-04-06T13:40:55;97114.28;;;19.90;30.15
41703;BME280;861;48.808;9.006;2023-04-06T13:43:22;97114.22;;;20.27;29.05
41703;BME280;861;48.808;9.006;2023-04-06T13:45:54;97119.25;;;20.07;29.00